Time;durP1;ratioP1;P1;durP2;ratioP2;P2;SDS_P1;SDS_P2;PMS_P1;PMS_P2;Temp;Humidity;BMP_temperature;BMP_pressure;BME280_temperature;BME280_humidity;BME280_pressure;Samples;Min_cycle;Max_cycle;Signal;HPM_P1;HPM_P2
2022/03/11 00:01:34;;;;;;;3.80;1.40;;;-3.10;68.80;;;;;;4979653;28;20315;-76
2022/03/11 00:04:04;;;;;;;7.10;1.17;;;-3.10;69.50;;;;;;4991627;28;20054;-76
2022/03/11 00:06:31;;;;;;;4.85;1.40;;;-3.10;70.10;;;;;;4991047;28;20053;-76
2022/03/11 00:08:59;;;;;;;6.47;1.33;;;-3.10;70.60;;;;;;4975036;28;20462;-75
2022/03/11 00:11:26;;;;;;;3.00;1.50;;;-3.10;70.90;;;;;;4997029;28;20597;-77
2022/03/11 00:13:56;;;;;;;2.55;1.73;;;-3.20;71.30;;;;;;4984242;28;20052;-76
2022/03/11 00:16:24;;;;;;;1.27;1.17;;;-3.10;71.90;;;;;;4990902;28;20101;-77
2022/03/11 00:18:53;;;;;;;2.78;1.15;;;-3.10;72.50;;;;;;5006552;28;20464;-77
2022/03/11 00:21:20;;;;;;;4.03;1.30;;;-3.00;72.90;;;;;;4989881;28;20635;-76
2022/03/11 00:23:48;;;;;;;4.15;1.70;;;-3.00;73.30;;;;;;4991721;28;20404;-77
2022/03/11 00:26:15;;;;;;;4.30;1.58;;;-3.00;73.70;;;;;;4998664;28;20050;-76
2022/03/11 00:28:42;;;;;;;3.05;1.50;;;-3.00;74.20;;;;;;4990620;28;20046;-77
2022/03/11 00:31:10;;;;;;;6.32;1.58;;;-2.90;75.10;;;;;;4991439;28;20073;-77
2022/03/11 00:33:38;;;;;;;4.72;1.52;;;-2.90;75.50;;;;;;4990894;28;20166;-77
2022/03/11 00:36:07;;;;;;;2.63;1.48;;;-2.80;76.10;;;;;;4980261;28;20054;-77
2022/03/11 00:38:34;;;;;;;4.25;1.60;;;-2.80;76.80;;;;;;4996281;28;20078;-76
2022/03/11 00:41:01;;;;;;;3.15;1.55;;;-2.70;77.60;;;;;;4991207;28;20058;-76
2022/03/11 00:43:29;;;;;;;11.48;1.67;;;-2.60;78.60;;;;;;4989656;28;20065;-76
2022/03/11 00:45:59;;;;;;;3.15;1.52;;;-2.60;80.50;;;;;;5003825;28;20100;-76
2022/03/11 00:48:27;;;;;;;6.75;1.75;;;-2.50;81.70;;;;;;4972832;28;20537;-76
2022/03/11 00:50:55;;;;;;;2.97;1.52;;;-2.40;83.00;;;;;;4973830;28;20057;-76
2022/03/11 00:53:24;;;;;;;5.85;1.98;;;-2.40;84.70;;;;;;4991715;28;20150;-76
2022/03/11 00:55:52;;;;;;;5.85;1.75;;;-2.30;86.80;;;;;;4989754;28;20050;-76
2022/03/11 00:58:19;;;;;;;3.45;2.00;;;-2.20;89.50;;;;;;4991099;28;20208;-76
2022/03/11 01:00:47;;;;;;;6.68;2.13;;;-2.20;91.20;;;;;;4989969;28;20058;-76
2022/03/11 01:03:14;;;;;;;4.90;1.35;;;-2.20;92.10;;;;;;4972896;28;20495;-75
2022/03/11 01:05:42;;;;;;;6.18;1.60;;;-2.20;93.50;;;;;;4973403;28;20054;-76
2022/03/11 01:08:09;;;;;;;2.92;1.33;;;-2.20;95.20;;;;;;4989404;28;20046;-76
2022/03/11 01:10:38;;;;;;;2.75;1.35;;;-2.10;97.00;;;;;;4977867;28;20062;-76
2022/03/11 01:13:07;;;;;;;6.18;1.48;;;-2.10;98.60;;;;;;4990388;28;20050;-76
2022/03/11 01:15:35;;;;;;;3.80;1.50;;;-2.10;99.90;;;;;;4989574;28;20062;-76
2022/03/11 01:18:02;;;;;;;7.47;1.70;;;-2.10;99.90;;;;;;4973706;28;20058;-76
2022/03/11 01:20:31;;;;;;;3.53;2.22;;;-2.00;99.90;;;;;;4990266;28;20070;-76
2022/03/11 01:22:58;;;;;;;2.55;1.10;;;-2.10;99.90;;;;;;4969830;28;20044;-77
2022/03/11 01:25:26;;;;;;;5.82;1.50;;;-2.00;99.90;;;;;;4995421;28;20458;-76
2022/03/11 01:27:54;;;;;;;5.82;1.60;;;-2.00;99.90;;;;;;4996348;28;20451;-75
2022/03/11 01:30:22;;;;;;;3.50;1.80;;;-2.00;99.90;;;;;;4972908;28;20515;-75
2022/03/11 01:32:50;;;;;;;4.72;1.58;;;-2.00;99.90;;;;;;4989577;28;20050;-76
2022/03/11 01:35:17;;;;;;;3.50;1.45;;;-1.90;99.90;;;;;;4990590;28;20430;-76
2022/03/11 01:37:46;;;;;;;4.68;1.50;;;-1.90;99.90;;;;;;4989725;28;20051;-77
2022/03/11 01:40:13;;;;;;;3.75;1.85;;;-1.90;99.90;;;;;;4990713;28;20057;-76
2022/03/11 01:42:40;;;;;;;3.67;2.50;;;-1.90;99.90;;;;;;4989970;28;20402;-76
2022/03/11 01:45:10;;;;;;;3.10;1.67;;;-1.90;99.90;;;;;;4990547;28;20047;-76
2022/03/11 01:47:37;;;;;;;5.88;1.90;;;-1.90;99.90;;;;;;4990546;28;20097;-76
2022/03/11 01:50:07;;;;;;;1.83;1.40;;;-1.80;99.90;;;;;;4992177;28;20089;-76
2022/03/11 01:52:35;;;;;;;4.25;1.50;;;-1.80;99.90;;;;;;4980636;28;20046;-77
2022/03/11 01:55:03;;;;;;;2.80;1.58;;;-1.80;99.90;;;;;;4989217;28;20038;-76
2022/03/11 01:57:34;;;;;;;6.80;1.98;;;-1.80;99.90;;;;;;4990565;28;20541;-77
2022/03/11 02:00:03;;;;;;;2.55;1.58;;;-1.80;99.90;;;;;;4982829;28;20061;-77
2022/03/11 02:02:41;;;;;;;3.85;2.28;;;-1.80;99.90;;;;;;4989406;28;20049;-76
2022/03/11 02:05:09;;;;;;;6.22;1.77;;;-1.70;99.90;;;;;;4991427;28;20058;-75
2022/03/11 02:07:36;;;;;;;3.88;1.67;;;-1.70;99.90;;;;;;4992805;28;20046;-75
2022/03/11 02:10:05;;;;;;;2.90;1.63;;;-1.70;99.90;;;;;;4991943;28;20057;-76
2022/03/11 02:12:35;;;;;;;3.17;1.70;;;-1.70;99.90;;;;;;4978833;28;20057;-75
2022/03/11 02:15:05;;;;;;;2.17;1.95;;;-1.70;99.90;;;;;;4975816;28;20058;-76
2022/03/11 02:17:32;;;;;;;5.97;2.42;;;-1.70;99.90;;;;;;4993314;28;20403;-76
2022/03/11 02:20:01;;;;;;;4.72;2.17;;;-1.60;99.90;;;;;;4976837;28;20055;-76
2022/03/11 02:22:36;;;;;;;4.60;1.73;;;-1.60;99.90;;;;;;4993624;28;20046;-77
2022/03/11 02:25:09;;;;;;;8.05;2.30;;;-1.70;99.90;;;;;;4993851;28;20495;-76
2022/03/11 02:27:42;;;;;;;4.40;1.83;;;-1.60;99.90;;;;;;4992423;28;20064;-72
2022/03/11 02:30:16;;;;;;;7.88;2.20;;;-1.60;99.90;;;;;;4993667;28;20368;-72
2022/03/11 02:32:44;;;;;;;6.53;1.85;;;-1.60;99.90;;;;;;4993536;28;20057;-72
2022/03/11 02:35:12;;;;;;;1.52;1.38;;;-1.60;99.90;;;;;;4991162;28;20054;-71
2022/03/11 02:37:40;;;;;;;8.98;2.17;;;-1.60;99.90;;;;;;4991825;28;20054;-72
2022/03/11 02:40:13;;;;;;;4.43;2.08;;;-1.60;99.90;;;;;;4994016;28;20491;-72
2022/03/11 02:42:40;;;;;;;6.63;2.30;;;-1.60;99.90;;;;;;4993364;28;20050;-71
2022/03/11 02:45:10;;;;;;;10.30;2.55;;;-1.60;99.90;;;;;;4986338;28;20404;-72
2022/03/11 02:47:37;;;;;;;8.02;2.00;;;-1.50;99.90;;;;;;4992475;28;20109;-72
2022/03/11 02:50:06;;;;;;;5.63;2.03;;;-1.40;99.90;;;;;;4984037;28;20053;-72
2022/03/11 02:52:34;;;;;;;4.18;2.00;;;-1.40;99.90;;;;;;4992990;28;20086;-71
2022/03/11 02:55:01;;;;;;;5.70;1.92;;;-1.40;99.90;;;;;;4977665;28;20493;-72
2022/03/11 02:57:31;;;;;;;3.95;1.77;;;-1.30;99.90;;;;;;4976446;28;20070;-72
2022/03/11 02:59:59;;;;;;;4.80;1.90;;;-1.30;99.90;;;;;;4992235;28;20058;-72
2022/03/11 03:02:26;;;;;;;9.68;2.20;;;-1.30;99.90;;;;;;4991202;28;20557;-72
2022/03/11 03:04:54;;;;;;;7.55;2.30;;;-1.20;99.90;;;;;;4991566;28;20056;-71
2022/03/11 03:07:22;;;;;;;6.47;2.05;;;-1.20;99.90;;;;;;4986061;28;20519;-72
2022/03/11 03:09:52;;;;;;;6.30;2.40;;;-1.20;99.90;;;;;;4993136;28;20085;-72
2022/03/11 03:12:19;;;;;;;7.18;4.13;;;-1.20;99.90;;;;;;4961751;28;20077;-71
2022/03/11 03:14:47;;;;;;;7.35;2.40;;;-1.10;99.90;;;;;;4992633;28;20069;-72
2022/03/11 03:17:19;;;;;;;5.35;2.10;;;-1.10;99.90;;;;;;4990778;28;20067;-71
2022/03/11 03:19:46;;;;;;;5.50;2.45;;;-1.10;99.90;;;;;;4993060;28;20050;-71
2022/03/11 03:22:14;;;;;;;8.13;2.58;;;-1.10;99.90;;;;;;4991635;28;20057;-72
2022/03/11 03:24:43;;;;;;;6.00;2.42;;;-1.10;99.90;;;;;;4992796;28;20058;-72
2022/03/11 03:27:11;;;;;;;4.82;2.42;;;-1.00;99.90;;;;;;4992115;28;20054;-72
2022/03/11 03:29:38;;;;;;;5.30;2.03;;;-1.00;99.90;;;;;;4993151;28;20054;-72
2022/03/11 03:32:08;;;;;;;2.88;2.17;;;-1.00;99.90;;;;;;4992613;28;20092;-72
2022/03/11 03:34:38;;;;;;;3.75;2.30;;;-0.90;99.90;;;;;;4992714;28;20213;-72
2022/03/11 03:37:11;;;;;;;3.72;2.22;;;-0.90;99.90;;;;;;4992427;28;20058;-71
2022/03/11 03:39:40;;;;;;;9.60;3.55;;;-0.90;99.90;;;;;;4991303;28;20060;-72
2022/03/11 03:42:09;;;;;;;18.10;2.72;;;-0.90;99.90;;;;;;4992058;28;20423;-76
2022/03/11 03:44:36;;;;;;;4.15;2.45;;;-0.90;99.90;;;;;;4974980;28;20050;-76
2022/03/11 03:47:05;;;;;;;4.13;2.40;;;-0.90;99.90;;;;;;4991754;28;20050;-76
2022/03/11 03:49:34;;;;;;;3.88;2.35;;;-0.90;99.90;;;;;;4991311;28;20422;-76
2022/03/11 03:52:02;;;;;;;7.82;2.40;;;-0.90;99.90;;;;;;4991403;28;20058;-76
2022/03/11 03:54:30;;;;;;;8.43;3.72;;;-0.90;99.90;;;;;;4992763;28;20038;-76
2022/03/11 03:56:57;;;;;;;10.88;3.00;;;-0.90;99.90;;;;;;4991653;28;20050;-76
2022/03/11 03:59:25;;;;;;;3.97;2.42;;;-0.90;99.90;;;;;;4992502;28;20038;-77
2022/03/11 04:01:52;;;;;;;8.68;2.60;;;-0.90;99.90;;;;;;4991206;28;20137;-76
2022/03/11 04:04:19;;;;;;;4.88;2.78;;;-0.80;99.90;;;;;;4993970;28;20058;-76
2022/03/11 04:06:49;;;;;;;8.55;2.65;;;-0.80;99.90;;;;;;4988846;28;20638;-76
2022/03/11 04:09:16;;;;;;;16.35;3.17;;;-0.80;99.90;;;;;;5004685;28;20046;-76
2022/03/11 04:11:44;;;;;;;6.50;2.83;;;-0.80;99.90;;;;;;4981981;28;20060;-78
2022/03/11 04:14:11;;;;;;;5.68;3.30;;;-0.80;99.90;;;;;;4989538;28;20049;-77
2022/03/11 04:16:39;;;;;;;5.25;2.25;;;-0.80;99.90;;;;;;5004666;28;20141;-78
2022/03/11 04:19:06;;;;;;;4.90;2.63;;;-0.80;99.90;;;;;;4958226;28;20504;-71
2022/03/11 04:21:34;;;;;;;4.93;2.75;;;-0.80;99.90;;;;;;4990232;28;20069;-72
2022/03/11 04:24:10;;;;;;;6.47;2.75;;;-0.80;99.90;;;;;;4990089;28;20043;-72
2022/03/11 04:26:38;;;;;;;5.55;2.50;;;-0.70;99.90;;;;;;4998095;28;20536;-73
2022/03/11 04:29:05;;;;;;;4.63;2.40;;;-0.70;99.90;;;;;;4994729;28;20047;-72
2022/03/11 04:31:33;;;;;;;8.07;3.10;;;-0.70;99.90;;;;;;4992127;28;20109;-72
2022/03/11 04:34:01;;;;;;;7.05;2.55;;;-0.70;99.90;;;;;;4975756;28;20471;-70
2022/03/11 04:36:28;;;;;;;7.93;2.92;;;-0.60;99.90;;;;;;5006011;28;20120;-71
2022/03/11 04:38:56;;;;;;;6.20;3.33;;;-0.60;99.90;;;;;;4991336;28;20054;-72
2022/03/11 04:41:26;;;;;;;9.10;2.75;;;-0.60;99.90;;;;;;4991818;28;20142;-71
2022/03/11 04:43:55;;;;;;;3.85;2.28;;;-0.60;99.90;;;;;;4983839;28;20054;-70
2022/03/11 04:46:22;;;;;;;14.90;3.10;;;-0.60;99.90;;;;;;4985008;28;20050;-70
2022/03/11 04:48:50;;;;;;;7.90;2.35;;;-0.60;99.90;;;;;;5011031;28;20056;-71
2022/03/11 04:51:21;;;;;;;4.75;2.67;;;-0.60;99.90;;;;;;5009832;28;20058;-69
2022/03/11 04:53:48;;;;;;;6.10;2.65;;;-0.60;99.90;;;;;;5010114;28;20046;-71
2022/03/11 04:56:15;;;;;;;7.60;2.65;;;-0.50;99.90;;;;;;5011137;28;20046;-69
2022/03/11 04:58:44;;;;;;;5.43;2.88;;;-0.50;99.90;;;;;;5004392;28;20050;-72
2022/03/11 05:01:12;;;;;;;5.13;2.60;;;-0.50;99.90;;;;;;4974879;28;20407;-71
2022/03/11 05:03:39;;;;;;;4.75;2.45;;;-0.40;99.90;;;;;;4973700;28;20050;-70
2022/03/11 05:06:07;;;;;;;12.27;3.10;;;-0.40;99.90;;;;;;4990946;28;20050;-72
2022/03/11 05:08:34;;;;;;;3.20;2.33;;;-0.40;99.90;;;;;;4989407;28;20515;-69
2022/03/11 05:11:02;;;;;;;14.80;3.15;;;-0.40;99.90;;;;;;4990538;28;20519;-78
2022/03/11 05:13:29;;;;;;;7.47;2.83;;;-0.40;99.90;;;;;;4990318;28;20431;-77
2022/03/11 05:15:58;;;;;;;6.82;3.38;;;-0.40;99.90;;;;;;4991363;28;20042;-75
2022/03/11 05:18:26;;;;;;;7.57;3.00;;;-0.40;99.90;;;;;;4991475;28;20511;-79
2022/03/11 05:20:53;;;;;;;7.13;2.50;;;-0.30;99.90;;;;;;4991746;28;20057;-70
2022/03/11 05:23:21;;;;;;;9.10;4.05;;;-0.30;99.90;;;;;;4988375;28;20053;-71
2022/03/11 05:25:49;;;;;;;11.35;3.10;;;-0.30;99.90;;;;;;5005500;28;20053;-76
2022/03/11 05:28:16;;;;;;;5.22;2.33;;;-0.30;99.90;;;;;;5001690;28;20088;-74
2022/03/11 05:30:44;;;;;;;5.32;2.78;;;-0.20;99.90;;;;;;4993247;28;20042;-74
2022/03/11 05:33:12;;;;;;;16.50;4.05;;;-0.20;99.90;;;;;;4989632;28;20050;-76
2022/03/11 05:35:41;;;;;;;7.93;3.00;;;-0.20;99.90;;;;;;4973908;28;20122;-75
2022/03/11 05:38:08;;;;;;;8.80;3.05;;;-0.20;99.90;;;;;;4990781;28;20058;-74
2022/03/11 05:40:36;;;;;;;9.77;2.35;;;-0.20;99.90;;;;;;4992928;28;20456;-75
2022/03/11 05:43:03;;;;;;;12.10;2.92;;;-0.20;99.90;;;;;;4977383;28;20047;-75
2022/03/11 05:45:31;;;;;;;7.28;3.08;;;-0.20;99.90;;;;;;4993623;28;20070;-75
2022/03/11 05:47:59;;;;;;;9.05;2.38;;;-0.10;99.90;;;;;;4995076;28;20101;-75
2022/03/11 05:50:27;;;;;;;7.25;2.47;;;0.00;99.90;;;;;;4993620;28;20470;-76
2022/03/11 05:52:55;;;;;;;3.95;2.40;;;0.00;99.90;;;;;;4977268;28;20060;-76
2022/03/11 05:55:22;;;;;;;11.95;2.83;;;0.10;99.90;;;;;;5002382;28;20492;-76
2022/03/11 05:57:50;;;;;;;6.95;2.72;;;0.10;99.90;;;;;;4998373;28;20526;-76
2022/03/11 06:00:19;;;;;;;10.55;3.30;;;0.20;99.90;;;;;;4979360;28;20149;-70
2022/03/11 06:02:46;;;;;;;5.97;2.72;;;0.20;99.90;;;;;;5001056;28;20050;-70
2022/03/11 06:05:14;;;;;;;6.22;2.33;;;0.20;99.90;;;;;;4994036;28;20054;-71
2022/03/11 06:07:43;;;;;;;7.43;2.83;;;0.20;99.90;;;;;;5006576;28;20105;-70
2022/03/11 06:10:11;;;;;;;11.60;2.72;;;0.10;99.90;;;;;;4997723;28;20318;-71
2022/03/11 06:12:39;;;;;;;7.25;2.15;;;0.20;99.90;;;;;;4994583;28;20050;-71
2022/03/11 06:15:08;;;;;;;10.32;3.47;;;0.30;99.90;;;;;;4976769;28;20141;-71
2022/03/11 06:17:35;;;;;;;13.40;2.95;;;0.20;99.90;;;;;;5002833;28;20066;-71
2022/03/11 06:20:03;;;;;;;8.88;2.67;;;0.20;99.90;;;;;;5005308;28;20637;-73
2022/03/11 06:22:35;;;;;;;13.15;3.80;;;0.30;99.90;;;;;;4976727;28;20141;-71
2022/03/11 06:25:04;;;;;;;7.22;2.97;;;0.30;99.90;;;;;;4976840;28;20050;-75
2022/03/11 06:27:32;;;;;;;9.68;2.90;;;0.40;99.90;;;;;;4979521;28;20535;-75
2022/03/11 06:29:59;;;;;;;9.18;3.42;;;0.40;99.90;;;;;;4984004;28;20414;-71
2022/03/11 06:32:27;;;;;;;5.45;2.42;;;0.40;99.90;;;;;;4993041;28;20049;-71
2022/03/11 06:34:55;;;;;;;9.52;2.95;;;0.40;99.90;;;;;;5009546;28;20050;-73
2022/03/11 06:37:23;;;;;;;6.85;3.00;;;0.40;99.90;;;;;;5004893;28;20543;-71
2022/03/11 06:39:51;;;;;;;7.88;3.15;;;0.40;99.90;;;;;;5003543;28;20043;-71
2022/03/11 06:42:20;;;;;;;16.70;3.22;;;0.40;99.90;;;;;;5010025;28;20553;-71
2022/03/11 06:44:48;;;;;;;6.00;3.80;;;0.40;99.90;;;;;;4986287;28;20050;-72
2022/03/11 06:47:16;;;;;;;7.72;2.92;;;0.50;99.90;;;;;;4999396;28;20046;-72
2022/03/11 06:49:44;;;;;;;13.30;2.88;;;0.60;99.90;;;;;;5005048;28;20052;-72
2022/03/11 06:52:12;;;;;;;5.35;2.42;;;0.50;99.90;;;;;;5000498;28;20568;-71
2022/03/11 06:54:39;;;;;;;7.05;2.60;;;0.50;99.90;;;;;;5002149;28;20101;-74
2022/03/11 06:57:09;;;;;;;6.97;2.40;;;0.50;99.90;;;;;;4985978;28;20110;-74
2022/03/11 06:59:37;;;;;;;8.90;3.50;;;0.50;99.90;;;;;;5012296;28;20052;-77
2022/03/11 07:02:05;;;;;;;9.55;3.25;;;0.50;99.90;;;;;;4995159;28;20042;-76
2022/03/11 07:04:32;;;;;;;9.50;3.30;;;0.50;99.90;;;;;;4996974;28;20049;-76
2022/03/11 07:07:00;;;;;;;4.75;2.65;;;0.50;99.90;;;;;;5001050;28;20053;-75
2022/03/11 07:09:27;;;;;;;11.93;2.70;;;0.50;99.90;;;;;;5001236;28;20046;-76
2022/03/11 07:11:57;;;;;;;7.47;3.35;;;0.50;99.90;;;;;;5000264;28;20400;-70
2022/03/11 07:14:25;;;;;;;14.70;4.63;;;0.60;99.90;;;;;;5000084;28;20049;-70
2022/03/11 07:16:56;;;;;;;9.82;2.63;;;0.70;99.90;;;;;;4988792;28;20050;-70
2022/03/11 07:19:23;;;;;;;8.63;2.92;;;0.90;99.90;;;;;;4991538;28;20054;-71
2022/03/11 07:21:51;;;;;;;10.18;3.47;;;1.00;99.90;;;;;;4991667;28;20054;-70
2022/03/11 07:24:18;;;;;;;11.10;3.58;;;1.10;99.90;;;;;;4990868;28;20038;-71
2022/03/11 07:26:46;;;;;;;9.25;3.55;;;1.10;99.90;;;;;;4990777;28;20189;-70
2022/03/11 07:29:14;;;;;;;5.88;3.05;;;1.10;99.90;;;;;;4992540;28;20137;-70
2022/03/11 07:31:42;;;;;;;10.40;3.72;;;1.10;99.90;;;;;;4974145;28;20153;-71
2022/03/11 07:34:14;;;;;;;34.33;5.28;;;1.20;99.90;;;;;;4991835;28;20133;-70
2022/03/11 07:36:42;;;;;;;8.45;3.30;;;1.20;99.90;;;;;;4991530;28;20085;-70
2022/03/11 07:39:10;;;;;;;9.52;3.80;;;1.20;99.90;;;;;;4990669;28;20141;-70
2022/03/11 07:41:39;;;;;;;5.93;3.08;;;1.10;99.90;;;;;;4990437;28;20061;-69
2022/03/11 07:44:07;;;;;;;12.57;5.25;;;1.20;99.90;;;;;;4992251;28;20483;-70
2022/03/11 07:46:36;;;;;;;13.30;3.88;;;1.20;99.90;;;;;;4989952;28;20058;-70
2022/03/11 07:49:04;;;;;;;10.00;5.15;;;1.30;99.90;;;;;;4991812;28;20396;-71
2022/03/11 07:51:33;;;;;;;11.65;3.03;;;1.20;99.90;;;;;;4991278;28;20542;-71
2022/03/11 07:54:01;;;;;;;10.13;3.90;;;1.20;99.90;;;;;;4991445;28;20058;-71
2022/03/11 07:56:29;;;;;;;8.02;3.28;;;1.20;99.90;;;;;;4957827;28;20506;-71
2022/03/11 07:58:57;;;;;;;12.63;4.20;;;1.30;99.90;;;;;;4989829;28;20072;-70
2022/03/11 08:01:25;;;;;;;9.98;3.72;;;1.40;99.90;;;;;;4991549;28;20058;-73
2022/03/11 08:03:54;;;;;;;6.82;2.95;;;1.30;99.90;;;;;;4991068;28;20058;-71
2022/03/11 08:06:22;;;;;;;10.65;3.25;;;1.30;99.90;;;;;;4973749;28;20598;-71
2022/03/11 08:08:51;;;;;;;13.10;3.35;;;1.30;99.90;;;;;;4991681;28;20051;-72
2022/03/11 08:11:18;;;;;;;7.10;3.40;;;1.40;99.90;;;;;;4991233;28;20430;-72
2022/03/11 08:13:46;;;;;;;10.88;2.50;;;1.40;99.90;;;;;;4973577;28;20042;-71
2022/03/11 08:16:14;;;;;;;15.10;4.10;;;1.40;99.90;;;;;;4991183;28;20698;-71
2022/03/11 08:18:44;;;;;;;8.85;3.83;;;1.40;99.90;;;;;;4989811;28;20431;-72
2022/03/11 08:21:14;;;;;;;8.82;3.38;;;1.40;99.90;;;;;;4991278;28;20523;-71
2022/03/11 08:23:44;;;;;;;12.13;3.60;;;1.40;99.90;;;;;;4989600;28;20093;-70
2022/03/11 08:26:17;;;;;;;8.88;4.35;;;1.40;99.90;;;;;;4990083;28;20054;-73
2022/03/11 08:28:45;;;;;;;12.40;3.28;;;1.40;99.90;;;;;;4990548;28;20054;-70
2022/03/11 08:31:14;;;;;;;8.02;3.42;;;1.40;99.90;;;;;;4972136;28;20050;-71
2022/03/11 08:33:41;;;;;;;10.20;2.92;;;1.40;99.90;;;;;;4987073;28;20042;-71
2022/03/11 08:36:09;;;;;;;6.50;2.83;;;1.50;99.90;;;;;;4988504;28;20046;-71
2022/03/11 08:38:37;;;;;;;9.23;2.72;;;1.50;99.90;;;;;;4992628;28;20057;-70
2022/03/11 08:41:07;;;;;;;9.57;3.60;;;1.50;99.90;;;;;;4997965;28;20097;-70
2022/03/11 08:43:38;;;;;;;12.88;3.55;;;1.60;99.90;;;;;;4999088;28;20107;-70
2022/03/11 08:46:07;;;;;;;7.00;2.83;;;1.60;99.90;;;;;;5001940;28;20053;-71
2022/03/11 08:48:35;;;;;;;7.80;2.95;;;1.60;99.90;;;;;;5000382;28;21128;-70
2022/03/11 08:51:02;;;;;;;5.38;2.92;;;1.60;99.90;;;;;;4996559;28;20043;-70
2022/03/11 08:53:30;;;;;;;9.68;2.90;;;1.60;99.90;;;;;;4981304;28;20049;-70
2022/03/11 08:56:05;;;;;;;12.98;3.55;;;1.60;99.90;;;;;;4999400;28;20092;-70
2022/03/11 08:58:34;;;;;;;11.50;3.33;;;1.60;99.90;;;;;;4995393;28;20133;-69
2022/03/11 09:01:02;;;;;;;10.43;3.17;;;1.60;99.90;;;;;;4987578;28;20490;-75
2022/03/11 09:03:30;;;;;;;15.68;4.75;;;1.60;99.90;;;;;;4973234;28;20058;-76
2022/03/11 09:05:58;;;;;;;7.03;3.13;;;1.70;99.90;;;;;;4990932;28;20148;-76
2022/03/11 09:08:26;;;;;;;9.05;3.58;;;1.70;99.90;;;;;;4990241;28;20140;-77
2022/03/11 09:10:55;;;;;;;11.10;2.90;;;1.70;99.90;;;;;;4991322;28;20057;-77
2022/03/11 09:13:22;;;;;;;17.10;4.30;;;1.60;99.90;;;;;;4954002;28;20051;-76
2022/03/11 09:15:51;;;;;;;12.68;3.95;;;1.60;99.90;;;;;;4983894;28;20062;-76
2022/03/11 09:18:18;;;;;;;9.57;3.35;;;1.60;99.90;;;;;;4993074;28;20518;-76
2022/03/11 09:20:46;;;;;;;8.13;3.50;;;1.60;99.90;;;;;;4993631;28;20137;-76
2022/03/11 09:23:14;;;;;;;10.23;3.45;;;1.60;99.90;;;;;;4994689;28;20546;-77
2022/03/11 09:25:41;;;;;;;12.95;4.10;;;1.60;99.90;;;;;;5009519;28;20056;-76
2022/03/11 09:28:11;;;;;;;10.55;3.05;;;1.60;99.90;;;;;;4994641;28;20054;-76
2022/03/11 09:30:38;;;;;;;9.82;3.08;;;1.60;99.90;;;;;;5009433;28;20042;-76
2022/03/11 09:33:08;;;;;;;9.27;3.40;;;1.60;99.90;;;;;;4993107;28;20051;-77
2022/03/11 09:35:35;;;;;;;11.57;3.33;;;1.60;99.90;;;;;;5008889;28;20054;-77
2022/03/11 09:38:02;;;;;;;12.32;4.75;;;1.60;99.90;;;;;;4994215;28;20058;-77
2022/03/11 09:40:31;;;;;;;9.55;3.40;;;1.50;99.90;;;;;;5008893;28;20104;-77
2022/03/11 09:43:00;;;;;;;12.50;3.92;;;1.50;99.90;;;;;;4994366;28;20097;-77
2022/03/11 09:45:29;;;;;;;10.38;2.95;;;1.50;99.90;;;;;;4992961;28;20050;-72
2022/03/11 09:47:57;;;;;;;8.73;2.78;;;1.50;99.90;;;;;;5001398;28;20112;-71
2022/03/11 09:50:26;;;;;;;11.40;2.80;;;1.60;99.90;;;;;;4993498;28;20054;-71
2022/03/11 09:52:56;;;;;;;8.93;3.65;;;1.70;99.90;;;;;;4993991;28;20054;-71
2022/03/11 09:55:24;;;;;;;6.68;3.47;;;1.70;99.90;;;;;;4994249;28;20057;-71
2022/03/11 09:57:55;;;;;;;13.75;3.40;;;1.70;99.90;;;;;;4976441;28;20057;-72
2022/03/11 10:00:24;;;;;;;14.57;3.60;;;1.80;99.90;;;;;;4993879;28;20068;-71
2022/03/11 10:02:52;;;;;;;15.32;3.50;;;1.70;99.90;;;;;;4994073;28;20057;-71
2022/03/11 10:05:22;;;;;;;11.25;3.20;;;1.80;99.90;;;;;;4976395;28;20468;-71
2022/03/11 10:08:03;;;;;;;12.35;3.45;;;1.80;99.90;;;;;;4994033;28;20414;-71
2022/03/11 10:10:31;;;;;;;9.43;2.95;;;1.80;99.90;;;;;;4960125;28;20145;-70
2022/03/11 10:12:58;;;;;;;9.70;2.92;;;1.80;99.90;;;;;;4993785;28;20042;-71
2022/03/11 10:15:29;;;;;;;9.30;3.40;;;1.70;99.90;;;;;;4993252;28;20054;-71
2022/03/11 10:17:57;;;;;;;8.15;3.40;;;1.70;99.90;;;;;;4992400;28;20490;-71
2022/03/11 10:20:25;;;;;;;10.45;3.25;;;1.70;99.90;;;;;;4991817;28;20136;-70
2022/03/11 10:22:52;;;;;;;11.50;4.60;;;1.80;99.90;;;;;;4992319;28;20525;-71
2022/03/11 10:25:25;;;;;;;19.38;3.92;;;1.80;99.90;;;;;;5002035;28;20043;-71
2022/03/11 10:28:01;;;;;;;13.77;4.07;;;1.80;99.90;;;;;;4999021;28;20498;-72
2022/03/11 10:30:32;;;;;;;11.27;3.55;;;1.80;99.90;;;;;;4993188;28;20050;-72
2022/03/11 10:33:01;;;;;;;6.45;3.35;;;1.80;99.90;;;;;;4995759;28;20542;-72
2022/03/11 10:35:34;;;;;;;10.77;4.28;;;1.80;99.90;;;;;;5001473;28;20093;-73
2022/03/11 10:38:08;;;;;;;22.55;9.10;;;1.80;99.90;;;;;;4997561;28;20457;-76
2022/03/11 10:40:45;;;;;;;23.35;8.98;;;1.80;99.90;;;;;;5004631;28;20052;-71
2022/03/11 10:43:18;;;;;;;14.45;5.72;;;1.80;99.90;;;;;;4983327;28;20042;-72
2022/03/11 10:45:47;;;;;;;;;;;1.80;99.90;;;;;;5001659;28;20084;-72
2022/03/11 10:48:16;;;;;;;11.52;3.78;;;1.70;99.90;;;;;;4992691;28;20302;-71
2022/03/11 10:50:44;;;;;;;7.65;4.35;;;1.70;99.90;;;;;;4968131;28;20105;-75
2022/03/11 10:53:13;;;;;;;9.10;4.50;;;1.70;99.90;;;;;;5002503;28;20133;-75
2022/03/11 10:55:44;;;;;;;10.65;4.25;;;1.80;99.90;;;;;;4998939;28;20062;-78
2022/03/11 10:58:16;;;;;;;11.93;4.32;;;1.80;99.90;;;;;;4966536;28;20046;-77
2022/03/11 11:00:45;;;;;;;7.55;3.55;;;1.90;99.90;;;;;;4995241;28;20523;-78
2022/03/11 11:03:13;;;;;;;16.95;5.90;;;2.00;99.90;;;;;;4958074;28;20613;-77
2022/03/11 11:05:43;;;;;;;13.93;5.00;;;1.90;99.90;;;;;;4987454;28;20046;-78
2022/03/11 11:08:11;;;;;;;14.77;4.60;;;1.90;99.90;;;;;;4990337;28;20478;-74
2022/03/11 11:10:41;;;;;;;15.43;4.57;;;1.90;99.90;;;;;;4994253;28;20078;-74
2022/03/11 11:13:09;;;;;;;19.95;6.35;;;1.90;99.90;;;;;;4990838;28;20046;-73
2022/03/11 11:15:39;;;;;;;10.45;4.70;;;1.80;99.90;;;;;;4973987;28;20042;-76
2022/03/11 11:18:13;;;;;;;10.27;4.60;;;1.80;99.90;;;;;;4965201;28;20042;-77
2022/03/11 11:20:47;;;;;;;10.93;4.38;;;1.80;99.90;;;;;;4972079;28;20050;-74
2022/03/11 11:23:17;;;;;;;13.93;5.45;;;1.80;99.90;;;;;;4972685;28;20388;-71
2022/03/11 11:25:51;;;;;;;15.02;4.88;;;1.80;99.90;;;;;;4972141;28;20047;-72
2022/03/11 11:28:23;;;;;;;12.23;5.65;;;1.80;99.90;;;;;;4971450;28;20058;-72
2022/03/11 11:30:54;;;;;;;13.60;4.10;;;1.80;99.90;;;;;;4954783;28;20085;-75
2022/03/11 11:33:22;;;;;;;12.23;4.68;;;1.80;99.90;;;;;;4972079;28;20146;-73
2022/03/11 11:35:57;;;;;;;12.02;5.43;;;1.70;99.90;;;;;;4972142;28;20055;-72
2022/03/11 11:38:35;;;;;;;16.98;5.45;;;1.70;99.90;;;;;;4971109;28;20055;-72
2022/03/11 11:41:24;;;;;;;12.45;5.40;;;1.80;99.90;;;;;;4999548;28;20085;-74
2022/03/11 11:43:57;;;;;;;15.18;4.88;;;1.80;99.90;;;;;;5000272;28;20057;-74
2022/03/11 11:46:25;;;;;;;;;;;1.90;99.90;;;;;;5001225;28;20050;-74
2022/03/11 11:49:05;;;;;;;12.50;4.72;;;1.80;99.90;;;;;;4992359;28;19972;-78
2022/03/11 11:51:59;;;;;;;15.00;5.35;;;1.80;99.90;;;;;;4991105;28;20616;-76
2022/03/11 11:54:45;;;;;;;15.10;5.25;;;1.80;99.90;;;;;;4991256;28;20058;-76
2022/03/11 11:57:43;;;;;;;15.18;5.53;;;1.90;99.90;;;;;;4989606;28;20054;-72
2022/03/11 12:00:37;;;;;;;13.48;4.90;;;1.90;99.90;;;;;;4988163;28;20062;-73
2022/03/11 12:03:12;;;;;;;15.80;5.18;;;1.80;99.90;;;;;;4973943;28;20043;-72
2022/03/11 12:05:54;;;;;;;15.80;7.32;;;1.80;99.90;;;;;;4973153;28;20101;-76
2022/03/11 12:08:58;;;;;;;14.18;6.03;;;1.90;99.90;;;;;;4992054;28;20539;-75
2022/03/11 12:11:45;;;;;;;17.50;8.80;;;1.90;99.90;;;;;;4982498;28;20053;-75
2022/03/11 12:14:20;;;;;;;12.43;5.90;;;2.00;99.90;;;;;;4987985;28;20050;-74
2022/03/11 12:17:09;;;;;;;10.10;6.07;;;2.00;99.90;;;;;;4993726;28;20116;-75
2022/03/11 12:19:48;;;;;;;14.40;5.50;;;2.00;99.90;;;;;;4999819;28;20195;-74
2022/03/11 12:22:35;;;;;;;8.38;5.05;;;2.00;99.90;;;;;;5000530;28;20465;-75
2022/03/11 12:25:16;;;;;;;7.50;4.57;;;2.00;99.90;;;;;;4999142;28;20494;-76
2022/03/11 12:28:00;;;;;;;11.73;4.80;;;2.00;99.90;;;;;;4987336;28;20774;-77
2022/03/11 12:30:31;;;;;;;12.73;4.70;;;2.00;99.90;;;;;;4988890;28;20046;-76
2022/03/11 12:33:02;;;;;;;9.50;4.53;;;2.20;99.90;;;;;;4991627;28;20399;-77
2022/03/11 12:35:32;;;;;;;7.95;4.60;;;2.20;99.90;;;;;;4999319;28;20045;-75
2022/03/11 12:38:00;;;;;;;10.57;5.00;;;2.20;99.90;;;;;;4989157;28;20073;-72
2022/03/11 12:40:29;;;;;;;11.65;4.93;;;2.20;99.90;;;;;;4972124;28;20582;-70
2022/03/11 12:43:03;;;;;;;11.18;5.55;;;2.20;99.90;;;;;;5001055;28;20062;-71
2022/03/11 12:45:34;;;;;;;8.50;5.32;;;2.20;99.90;;;;;;4988796;28;20628;-77
2022/03/11 12:48:03;;;;;;;8.48;5.55;;;2.30;99.90;;;;;;4990059;28;20058;-77
2022/03/11 12:50:31;;;;;;;9.07;4.72;;;2.30;99.90;;;;;;4972131;28;20097;-76
2022/03/11 12:53:00;;;;;;;9.75;5.18;;;2.30;99.90;;;;;;4972683;28;20042;-77
2022/03/11 12:55:31;;;;;;;8.73;5.18;;;2.30;99.90;;;;;;4986590;28;20093;-76
2022/03/11 12:58:02;;;;;;;11.88;6.13;;;2.30;99.90;;;;;;4987574;28;20081;-76
2022/03/11 13:00:36;;;;;;;17.90;9.57;;;2.30;99.90;;;;;;4997389;28;20152;-76
2022/03/11 13:03:07;;;;;;;12.40;8.07;;;2.30;99.90;;;;;;5003690;28;20042;-73